Briefing drone pour Villars

Rechercher une autre localisation

Conditions de vol :


Nous sommes le : Mercredi 26 janvier 2022
Il est 19:31 UTC (20:31 LT)

Lever de soleil : 06:43 UTC (07:43 LT)
Coucher de soleil : 17:06 UTC (18:06 LT)

Météo

L'essentiel des conditions de vol

VIGILANCE MÉTÉO FRANCE - Loire (42)
Pas de vigilances particulieres
METAR de LFMH
LFMH 261900Z AUTO VRB02KT CAVOK M00/M02 Q1032

Date d'émission: 26/01/2022
Heure d'émission: 19:00 UTC
Vent: Variable 2 KT (4 km/h)
Visibilité horizontale: > 10 km
Plafond : Plafond et visibilité OK (CAVOK)
Température: 0 °C
Point de rosée: -2 °C
Humidité: 86%
Pression (QNH): 1032 hPa
TAF de LFMH
LFMH 161901Z 1619/1712 CNL

Conditions prévues :

Heure d'émission : Bulletin éffectué le 16 à 19:00 UTC
Prévision : Valide du 16 a 19:00 UTC au 17 a 12:00 UTC
Nuages : à 0ft (0 m)
WEBCAM POUR VILLARS

Réglementation

Voler en sécurité

CARTES AERONAUTIQUE 1/500.000
CARTES VAC (LFMH)
SUP AIP




Chargement des AIP...
NOTAM (VILLARS + Terrain à proximité / FIR )




Chargement des NOTAMS...
CONTACT PREFECTURE 42


Avertissement : Les données mises à disposition sont indicatives. Oxygène Drone ne pourra être tenu responsable de dégâts causés aux biens et aux personnes.